Terminal Aerodrome Forecast
Issued by NWS

Home | Current Version | Previous Version | Text Only | Print | Product List | Glossary On
Versions: 1 2 3 4 5 6 7 8 9 10 11 12 13 14 15 16
000
FTUS46 KMTR 012300
TAFOAK
TAF
KOAK 012340Z 0200/0306 29014KT P6SM FEW008
     FM020400 30006KT P6SM FEW010 FEW250
     FM020800 30005KT P6SM OVC007
     FM021800 29007KT P6SM SKC
     FM022100 30014KT P6SM SKC
     FM030500 30005KT P6SM BKN008=

USA.gov is the U.S. government's official web portal to all federal, state and local government web resources and services.